Time;durP1;ratioP1;P1;durP2;ratioP2;P2;SDS_P1;SDS_P2;PMS_P1;PMS_P2;Temp;Humidity;BMP_temperature;BMP_pressure;BME280_temperature;BME280_humidity;BME280_pressure;Samples;Min_cycle;Max_cycle;Signal;HPM_P1;HPM_P2
2022/01/19 00:04:41;;;;;;;34.58;20.30;;;;;;;-0.41;79.71;102029.63;3265819;86;21159;-71
2022/01/19 00:09:32;;;;;;;38.55;20.92;;;;;;;-0.42;79.69;102006.10;3195913;87;21122;-73
2022/01/19 00:14:23;;;;;;;35.63;18.73;;;;;;;-0.42;79.67;102011.21;3206673;86;21976;-72
2022/01/19 00:19:14;;;;;;;31.12;16.97;;;;;;;-0.44;79.58;102001.64;3218082;87;20979;-73
2022/01/19 00:24:06;;;;;;;25.25;16.52;;;;;;;-0.52;79.78;101985.70;3278948;86;20964;-72
2022/01/19 00:28:58;;;;;;;35.00;19.85;;;;;;;-0.54;79.61;101971.88;3229744;87;21163;-72
2022/01/19 00:33:49;;;;;;;33.75;19.37;;;;;;;-0.58;79.60;101959.63;3202599;87;20942;-72
2022/01/19 00:38:40;;;;;;;35.23;19.37;;;;;;;-0.61;79.62;101955.54;3226601;87;21075;-72
2022/01/19 00:43:33;;;;;;;32.13;18.82;;;;;;;-0.60;79.75;101956.06;3234334;87;21343;-72
2022/01/19 00:48:24;;;;;;;37.38;22.75;;;;;;;-0.55;79.85;101963.72;3256544;87;20980;-72
2022/01/19 00:53:15;;;;;;;37.70;23.62;;;;;;;-0.56;79.78;101963.20;3226932;86;21433;-73
2022/01/19 00:58:06;;;;;;;35.13;19.75;;;;;;;-0.55;79.69;101980.33;3278084;86;21075;-72
2022/01/19 01:02:57;;;;;;;40.00;22.02;;;;;;;-0.54;79.64;101979.94;3231743;87;22484;-72
2022/01/19 01:07:50;;;;;;;28.62;16.35;;;;;;;-0.52;79.56;101965.63;3204977;87;21365;-72
2022/01/19 01:22:47;;;;;;;34.03;18.60;;;;;;;-0.56;79.58;101958.48;3232886;87;20984;-73
2022/01/19 01:27:39;;;;;;;40.85;18.90;;;;;;;-0.59;79.77;101934.48;3197709;87;21005;-73
2022/01/19 01:32:31;;;;;;;27.22;14.87;;;;;;;-0.57;79.88;101925.66;3278404;86;21206;-72
2022/01/19 01:37:22;;;;;;;47.48;20.10;;;;;;;-0.55;80.16;101904.96;3255990;87;20996;-73
2022/01/19 01:42:19;;;;;;;35.58;17.57;;;;;;;-0.53;80.19;101907.25;3190563;87;20973;-73
2022/01/19 01:47:11;;;;;;;35.00;16.10;;;;;;;-0.48;80.22;101894.47;3277154;86;21400;-73
2022/01/19 01:57:13;;;;;;;35.45;18.60;;;;;;;-0.43;80.26;101880.77;3301161;85;21180;-73
2022/01/19 02:02:04;;;;;;;28.30;16.00;;;;;;;-0.42;80.31;101875.78;3255050;84;21015;-72
2022/01/19 02:22:33;;;;;;;27.30;14.80;;;;;;;-0.31;80.32;101842.52;3326292;84;21187;-73
2022/01/19 02:43:07;;;;;;;35.60;14.87;;;;;;;-0.27;80.24;101817.34;3292204;84;20996;-72
2022/01/19 02:53:00;;;;;;;32.42;15.63;;;;;;;-0.26;80.26;101804.16;3265283;84;21114;-73
2022/01/19 02:57:51;;;;;;;25.45;16.00;;;;;;;-0.24;80.16;101788.16;3259076;85;20929;-73
2022/01/19 03:13:02;;;;;;;31.50;14.95;;;;;;;-0.23;80.24;101749.45;3287618;85;21182;-73
2022/01/19 03:17:58;;;;;;;28.80;14.87;;;;;;;-0.24;80.35;101736.16;3264782;85;20990;-73
2022/01/19 03:23:01;;;;;;;28.75;15.68;;;;;;;-0.24;80.56;101723.38;3268263;85;20905;-73
2022/01/19 03:27:40;;;;;;;25.40;13.75;;;;;;;-0.24;80.62;101707.64;3252230;85;20995;-73
2022/01/19 03:32:32;;;;;;;33.20;16.10;;;;;;;-0.27;80.72;101716.74;3251912;85;20979;-72
2022/01/19 03:37:23;;;;;;;37.05;17.87;;;;;;;-0.25;80.98;101697.30;3286923;85;21095;-73
2022/01/19 03:42:15;;;;;;;31.30;14.83;;;;;;;-0.27;81.14;101686.08;3286579;86;20948;-72
2022/01/19 03:47:07;;;;;;;32.48;14.33;;;;;;;-0.28;81.23;101676.64;3263050;85;21054;-72
2022/01/19 03:52:02;;;;;;;26.87;14.23;;;;;;;-0.29;81.39;101664.63;3268195;85;21007;-72
2022/01/19 03:56:56;;;;;;;27.98;14.23;;;;;;;-0.28;81.53;101653.64;3239429;86;20969;-72
2022/01/19 04:01:47;;;;;;;31.50;14.65;;;;;;;-0.30;81.61;101630.92;3239294;86;21484;-73
2022/01/19 04:07:01;;;;;;;21.25;11.90;;;;;;;-0.32;81.73;101633.72;3236046;85;20986;-72
2022/01/19 04:11:35;;;;;;;26.90;15.35;;;;;;;-0.30;81.94;101637.31;3218120;86;21034;-73
2022/01/19 04:16:26;;;;;;;24.72;12.63;;;;;;;-0.32;81.98;101637.55;3242286;86;21548;-73
2022/01/19 04:21:17;;;;;;;24.98;11.65;;;;;;;-0.31;82.24;101631.28;3218000;87;21508;-72
2022/01/19 04:26:08;;;;;;;20.65;11.50;;;;;;;-0.28;82.37;101619.14;3241876;85;21518;-72
2022/01/19 04:31:00;;;;;;;21.05;11.55;;;;;;;-0.29;82.61;101604.56;3266165;85;20986;-72
2022/01/19 04:35:54;;;;;;;24.92;11.18;;;;;;;-0.26;82.73;101609.52;3242949;86;20996;-72
2022/01/19 05:06:17;;;;;;;27.55;12.63;;;;;;;0.01;83.40;101561.20;3111346;89;21033;-73
2022/01/19 05:16:21;;;;;;;18.98;12.13;;;;;;;-0.01;83.45;101543.20;3143049;89;21598;-73
2022/01/19 05:21:12;;;;;;;21.00;11.88;;;;;;;0.01;83.59;101522.86;3129657;89;20952;-73
2022/01/19 05:26:22;;;;;;;19.80;10.00;;;;;;;0.04;83.65;101518.37;3096496;89;21218;-72
2022/01/19 05:31:14;;;;;;;21.97;11.95;;;;;;;0.05;83.72;101513.73;3150543;89;20967;-72
2022/01/19 05:36:06;;;;;;;24.82;12.20;;;;;;;0.06;83.79;101504.91;3155736;86;21105;-72
2022/01/19 05:41:17;;;;;;;24.07;12.47;;;;;;;0.08;83.85;101501.19;3200261;86;20995;-72
2022/01/19 05:46:09;;;;;;;24.12;12.80;;;;;;;0.11;83.90;101501.41;3219570;86;21010;-74
2022/01/19 05:51:01;;;;;;;22.00;11.97;;;;;;;0.14;83.93;101506.72;3202762;86;20999;-73
2022/01/19 05:55:54;;;;;;;20.90;12.90;;;;;;;0.16;83.99;101505.16;3240257;84;21002;-72
2022/01/19 06:00:45;;;;;;;25.00;13.05;;;;;;;0.18;84.02;101507.06;3295666;84;20941;-72
2022/01/19 06:05:36;;;;;;;26.77;14.70;;;;;;;0.18;84.05;101503.63;3283091;84;21084;-72
2022/01/19 06:10:44;;;;;;;25.40;14.78;;;;;;;0.21;84.13;101500.39;3256576;84;20991;-73
2022/01/19 06:15:36;;;;;;;32.42;15.25;;;;;;;0.22;84.18;101501.78;3307878;85;20948;-73
2022/01/19 06:20:27;;;;;;;25.30;14.83;;;;;;;0.25;84.25;101487.02;3264786;84;20975;-73
2022/01/19 06:25:18;;;;;;;24.67;15.03;;;;;;;0.30;84.30;101490.80;3281566;84;20972;-73
2022/01/19 06:30:11;;;;;;;31.50;16.60;;;;;;;0.32;84.33;101476.08;3236644;84;22776;-72
2022/01/19 06:35:03;;;;;;;27.80;15.68;;;;;;;0.35;84.36;101472.43;3286513;85;21516;-72
2022/01/19 06:39:56;;;;;;;32.93;18.67;;;;;;;0.37;84.36;101462.31;3311394;85;20931;-72
2022/01/19 06:44:47;;;;;;;31.62;18.73;;;;;;;0.42;84.48;101465.20;3305822;84;20967;-72
2022/01/19 06:49:39;;;;;;;27.77;16.30;;;;;;;0.46;84.51;101460.79;3287509;84;20967;-73
2022/01/19 06:54:32;;;;;;;28.17;16.02;;;;;;;0.50;84.56;101464.96;3321734;84;21227;-73
2022/01/19 06:59:24;;;;;;;27.77;15.95;;;;;;;0.52;84.58;101457.36;3202097;86;20999;-73
2022/01/19 07:04:32;;;;;;;35.63;18.45;;;;;;;0.55;84.60;101453.38;3231322;85;21018;-72
2022/01/19 07:09:24;;;;;;;27.17;16.48;;;;;;;0.59;84.66;101455.75;3211361;86;20980;-73
2022/01/19 07:14:20;;;;;;;31.35;16.42;;;;;;;0.64;84.65;101444.13;3255409;86;20972;-72
2022/01/19 07:19:13;;;;;;;30.62;17.65;;;;;;;0.69;84.67;101440.63;3239809;86;21012;-72
2022/01/19 07:24:06;;;;;;;28.70;14.73;;;;;;;0.73;84.68;101429.80;3219383;86;20963;-71
2022/01/19 07:28:58;;;;;;;25.25;15.00;;;;;;;0.78;84.73;101433.56;3256986;86;21091;-72
2022/01/19 07:33:50;;;;;;;26.02;13.28;;;;;;;0.83;84.72;101430.05;3262649;87;21004;-72
2022/01/19 07:38:41;;;;;;;25.82;15.15;;;;;;;0.87;84.75;101431.62;3226110;86;20995;-73
2022/01/19 07:43:32;;;;;;;21.02;13.50;;;;;;;0.91;84.72;101421.19;3256198;86;21576;-73
2022/01/19 07:48:31;;;;;;;23.77;13.98;;;;;;;0.94;84.73;101422.69;3211132;86;21481;-72
2022/01/19 07:53:26;;;;;;;26.20;14.05;;;;;;;1.01;84.72;101413.75;3260293;86;21238;-72
2022/01/19 07:58:34;;;;;;;20.88;13.58;;;;;;;1.06;84.67;101405.58;3264321;84;21668;-72
2022/01/19 08:03:27;;;;;;;21.52;13.65;;;;;;;1.10;84.66;101399.86;3254251;84;20956;-72
2022/01/19 08:08:20;;;;;;;20.10;12.93;;;;;;;1.19;84.59;101388.46;3301400;84;21043;-71
2022/01/19 08:13:14;;;;;;;24.35;12.53;;;;;;;1.28;84.53;101378.81;3258786;84;21024;-72
2022/01/19 08:18:05;;;;;;;21.05;14.00;;;;;;;1.35;84.44;101378.42;3277414;84;21004;-72
2022/01/19 08:22:56;;;;;;;16.93;12.20;;;;;;;1.42;84.46;101362.65;3274433;85;21022;-72
2022/01/19 08:27:50;;;;;;;15.03;10.32;;;;;;;1.48;84.32;101371.12;3260435;85;22051;-71
2022/01/19 08:32:43;;;;;;;29.20;14.83;;;;;;;1.55;84.28;101362.16;3267340;85;21043;-72
2022/01/19 08:37:42;;;;;;;19.60;12.40;;;;;;;1.58;84.18;101364.92;3259298;86;21018;-71
2022/01/19 08:42:36;;;;;;;23.52;12.28;;;;;;;1.63;84.07;101349.44;3264761;85;20978;-73
2022/01/19 08:47:27;;;;;;;20.43;12.63;;;;;;;1.67;84.03;101351.41;3258650;85;21550;-73
2022/01/19 08:52:35;;;;;;;19.48;11.97;;;;;;;1.74;83.94;101335.61;3328522;84;21022;-73
2022/01/19 08:57:34;;;;;;;17.27;12.80;;;;;;;1.82;83.86;101326.70;3287912;85;20993;-72
2022/01/19 09:02:25;;;;;;;25.95;12.80;;;;;;;1.86;83.63;101326.12;3220451;85;21555;-73
2022/01/19 09:07:18;;;;;;;22.07;12.45;;;;;;;1.86;83.56;101318.42;3286184;84;21006;-73
2022/01/19 09:12:10;;;;;;;21.70;12.85;;;;;;;1.82;83.62;101312.59;3286927;85;22122;-74
2022/01/19 09:17:07;;;;;;;20.43;13.45;;;;;;;1.80;83.56;101312.02;3268414;84;21121;-73
2022/01/19 09:21:55;;;;;;;20.20;12.85;;;;;;;1.79;83.64;101318.84;3266342;85;21300;-74
2022/01/19 09:26:47;;;;;;;21.10;13.58;;;;;;;1.82;83.57;101306.19;3268217;85;20952;-76
2022/01/19 09:31:39;;;;;;;22.52;13.53;;;;;;;1.88;83.46;101297.61;3288275;84;21531;-71
2022/01/19 09:36:33;;;;;;;17.92;12.25;;;;;;;1.93;83.40;101290.58;3278496;84;21122;-71
2022/01/19 09:41:24;;;;;;;23.98;14.00;;;;;;;2.06;83.27;101283.73;3263534;84;21214;-72
2022/01/19 09:46:16;;;;;;;22.67;13.45;;;;;;;2.16;83.03;101277.45;3267121;85;21583;-71
2022/01/19 09:51:08;;;;;;;19.17;12.50;;;;;;;2.22;82.91;101275.27;3277292;84;21571;-71
2022/01/19 09:55:59;;;;;;;20.27;13.78;;;;;;;2.23;82.84;101264.20;3227714;85;21161;-71
2022/01/19 10:00:51;;;;;;;19.98;12.85;;;;;;;2.25;82.81;101254.94;3315846;85;20984;-73
2022/01/19 10:06:08;;;;;;;22.10;14.33;;;;;;;2.26;82.73;101254.13;3266161;85;20956;-72
2022/01/19 10:11:29;;;;;;;19.35;12.68;;;;;;;2.28;82.61;101239.70;3249503;86;21979;-73
2022/01/19 10:21:24;;;;;;;21.82;14.03;;;;;;;2.32;82.46;101228.34;3320369;85;21056;-74
2022/01/19 10:26:25;;;;;;;19.52;14.33;;;;;;;2.32;82.43;101230.91;3267967;85;21062;-73
2022/01/19 10:31:17;;;;;;;20.90;13.68;;;;;;;2.29;82.46;101226.09;3246010;85;20959;-74
2022/01/19 10:36:09;;;;;;;22.17;14.33;;;;;;;2.33;82.46;101224.59;3271737;86;21108;-74
2022/01/19 10:41:10;;;;;;;21.70;13.53;;;;;;;2.31;82.28;101212.44;3260133;86;21066;-74
2022/01/19 10:46:27;;;;;;;21.25;13.62;;;;;;;2.26;82.38;101209.22;3295904;86;20952;-74
2022/01/19 10:51:21;;;;;;;22.15;14.93;;;;;;;2.21;82.38;101199.08;3269972;86;21021;-74
2022/01/19 10:56:29;;;;;;;26.75;16.17;;;;;;;2.21;82.47;101199.08;3264705;85;21536;-73
2022/01/19 11:01:47;;;;;;;21.25;13.08;;;;;;;2.24;82.40;101189.01;3287049;86;21185;-73
2022/01/19 11:06:38;;;;;;;24.23;16.50;;;;;;;2.33;82.38;101174.95;3235076;85;20986;-72
2022/01/19 11:11:29;;;;;;;17.32;12.13;;;;;;;2.37;82.25;101181.61;3270228;86;21006;-73
2022/01/19 11:16:21;;;;;;;23.60;16.15;;;;;;;2.39;82.25;101181.70;3250092;86;20982;-73
2022/01/19 11:21:13;;;;;;;19.75;12.18;;;;;;;2.39;82.14;101171.44;3217433;85;20970;-73
2022/01/19 11:26:12;;;;;;;23.87;16.10;;;;;;;2.36;82.14;101167.41;3278973;86;21081;-73
2022/01/19 11:31:11;;;;;;;20.95;15.03;;;;;;;2.35;82.23;101152.83;3266065;86;20944;-74
2022/01/19 11:36:05;;;;;;;24.27;14.30;;;;;;;2.35;82.19;101151.13;3235999;86;21608;-74
2022/01/19 11:40:57;;;;;;;23.05;15.13;;;;;;;2.39;82.08;101132.95;3248200;85;20951;-73
2022/01/19 11:45:48;;;;;;;24.55;14.78;;;;;;;2.38;82.06;101127.31;3237140;86;21232;-72
2022/01/19 11:50:39;;;;;;;19.40;13.62;;;;;;;2.41;82.09;101130.94;3238058;85;21149;-73
2022/01/19 11:55:33;;;;;;;22.32;14.33;;;;;;;2.43;81.89;101123.33;3237543;86;21475;-78
2022/01/19 12:00:32;;;;;;;21.77;15.55;;;;;;;2.40;81.93;101106.09;3251064;84;20980;-78
2022/01/19 12:05:37;;;;;;;23.80;15.18;;;;;;;2.41;81.97;101094.13;3271034;86;20983;-72
2022/01/19 12:10:43;;;;;;;25.37;16.90;;;;;;;2.44;82.02;101084.05;3313710;85;20987;-73
2022/01/19 12:15:55;;;;;;;21.77;13.28;;;;;;;2.43;81.95;101071.63;3266234;86;21493;-72
2022/01/19 12:20:50;;;;;;;23.65;15.18;;;;;;;2.49;81.86;101062.09;3272501;85;20976;-77
2022/01/19 12:25:55;;;;;;;25.35;18.00;;;;;;;2.46;81.68;101055.08;3296092;86;21471;-78
2022/01/19 12:30:47;;;;;;;23.47;16.70;;;;;;;2.51;81.82;101051.50;3309267;85;21453;-80
2022/01/19 12:35:38;;;;;;;22.65;16.23;;;;;;;2.53;81.67;101042.20;3252916;85;20976;-78
2022/01/19 12:40:35;;;;;;;25.68;16.07;;;;;;;2.54;81.65;101034.09;3266761;86;22014;-76
2022/01/19 12:45:44;;;;;;;23.50;15.40;;;;;;;2.52;81.47;101036.56;3296954;85;20968;-76
2022/01/19 12:50:45;;;;;;;24.52;18.00;;;;;;;2.52;81.63;101027.98;3290249;85;20929;-71
2022/01/19 12:55:40;;;;;;;23.75;16.80;;;;;;;2.54;81.63;101027.30;3261159;86;20987;-73
2022/01/19 13:00:33;;;;;;;24.18;17.62;;;;;;;2.56;81.61;101023.49;3277579;85;21462;-73
2022/01/19 13:05:29;;;;;;;24.90;16.70;;;;;;;2.59;81.54;101007.86;3247604;86;21532;-74
2022/01/19 13:10:46;;;;;;;26.07;16.87;;;;;;;2.61;81.50;100993.45;3250570;85;21007;-73
2022/01/19 13:16:01;;;;;;;23.45;16.77;;;;;;;2.63;81.35;100989.27;3281190;85;21027;-73
2022/01/19 13:20:56;;;;;;;27.07;19.05;;;;;;;2.63;81.32;100981.57;3263644;84;21429;-74
2022/01/19 13:26:03;;;;;;;29.57;19.25;;;;;;;2.62;81.27;100974.66;3267002;85;21040;-73
2022/01/19 13:30:59;;;;;;;29.63;18.82;;;;;;;2.56;81.10;100958.94;3310526;85;22017;-72
2022/01/19 13:36:01;;;;;;;29.85;18.12;;;;;;;2.53;81.40;100966.88;3265451;85;21048;-72
2022/01/19 13:41:07;;;;;;;27.60;19.50;;;;;;;2.53;81.51;100969.45;3279001;86;20982;-73
2022/01/19 13:46:02;;;;;;;28.62;19.87;;;;;;;2.52;81.55;100967.26;3242157;86;20935;-74
2022/01/19 13:50:56;;;;;;;27.93;18.37;;;;;;;2.51;81.47;100954.38;3256364;85;20983;-72
2022/01/19 13:55:47;;;;;;;35.88;20.48;;;;;;;2.51;81.43;100964.64;3254431;86;21240;-73
2022/01/19 14:01:02;;;;;;;30.68;20.95;;;;;;;2.47;81.47;100964.88;3202919;86;21020;-73
2022/01/19 14:05:55;;;;;;;25.80;19.27;;;;;;;2.45;81.59;100942.06;3250649;87;21522;-73
2022/01/19 14:10:49;;;;;;;29.70;18.23;;;;;;;2.44;81.54;100936.47;3234354;87;21013;-74
2022/01/19 14:15:40;;;;;;;33.85;21.77;;;;;;;2.40;81.37;100935.84;3231129;87;20963;-74
2022/01/19 14:20:31;;;;;;;37.00;22.90;;;;;;;2.34;81.36;100938.05;3204873;87;21353;-72
2022/01/19 14:25:22;;;;;;;32.00;21.20;;;;;;;2.27;81.43;100929.14;3271945;87;21532;-75
2022/01/19 14:30:20;;;;;;;32.73;21.82;;;;;;;2.22;81.37;100928.03;3222518;87;21037;-74
2022/01/19 14:35:26;;;;;;;29.02;19.15;;;;;;;2.17;81.35;100920.08;3248194;87;21000;-75
2022/01/19 14:40:17;;;;;;;35.63;24.52;;;;;;;2.14;81.51;100914.77;3279063;86;20999;-75
2022/01/19 14:45:27;;;;;;;38.88;25.23;;;;;;;2.10;81.48;100905.16;3251587;87;21515;-75
2022/01/19 14:50:26;;;;;;;38.90;23.70;;;;;;;2.09;81.62;100903.38;3242913;87;20972;-76
2022/01/19 14:55:24;;;;;;;32.93;23.87;;;;;;;2.08;81.69;100901.63;3272305;87;21010;-76
2022/01/19 15:00:16;;;;;;;;;;;;;;;2.06;81.75;100900.67;3261200;84;21591;-76
2022/01/19 15:05:08;;;;;;;31.25;21.10;;;;;;;2.05;81.79;100880.94;3263220;84;20220;-75
2022/01/19 15:09:59;;;;;;;35.85;22.65;;;;;;;2.03;81.72;100880.84;3256234;85;22059;-75
2022/01/19 15:14:50;;;;;;;29.98;21.00;;;;;;;1.99;81.69;100871.23;3279682;84;21019;-74
2022/01/19 15:19:41;;;;;;;32.45;22.32;;;;;;;1.98;81.73;100866.02;3271106;84;21265;-74
2022/01/19 15:24:32;;;;;;;30.77;19.37;;;;;;;1.94;81.69;100850.86;3303016;84;21201;-75
2022/01/19 15:29:24;;;;;;;38.65;20.50;;;;;;;1.94;81.81;100847.43;3309622;84;21881;-76
2022/01/19 15:34:15;;;;;;;30.75;19.82;;;;;;;1.89;81.61;100839.47;3283697;84;21112;-76
2022/01/19 15:39:08;;;;;;;32.80;22.37;;;;;;;1.84;81.65;100848.22;3275184;84;21087;-76
2022/01/19 15:43:59;;;;;;;34.53;22.25;;;;;;;1.85;81.76;100839.70;3322887;84;21456;-77
2022/01/19 15:48:50;;;;;;;32.20;22.35;;;;;;;1.84;81.72;100826.80;3301441;84;21006;-73
2022/01/19 15:53:42;;;;;;;34.08;22.25;;;;;;;1.84;81.76;100816.55;3282465;84;38900;-75
2022/01/19 15:58:33;;;;;;;28.62;20.62;;;;;;;1.77;81.60;100807.66;3278853;85;21101;-74
2022/01/19 16:03:24;;;;;;;37.98;22.67;;;;;;;1.73;81.66;100785.20;3319842;84;21027;-74
2022/01/19 16:08:15;;;;;;;32.98;22.67;;;;;;;1.73;81.74;100778.80;3271617;84;21166;-74
2022/01/19 16:13:08;;;;;;;31.73;22.02;;;;;;;1.69;81.75;100775.59;3246382;84;20975;-75
2022/01/19 16:17:59;;;;;;;32.75;20.95;;;;;;;1.69;81.75;100762.78;3305776;85;20980;-74
2022/01/19 16:28:00;;;;;;;38.40;24.07;;;;;;;1.64;81.66;100750.98;3290361;84;21027;-75
2022/01/19 16:32:51;;;;;;;30.57;20.85;;;;;;;1.63;81.81;100749.66;3269333;85;20955;-78
2022/01/19 16:37:42;;;;;;;33.20;21.33;;;;;;;1.64;81.81;100736.89;3245630;85;20976;-74
2022/01/19 16:42:33;;;;;;;30.50;20.35;;;;;;;1.63;81.73;100730.02;3271320;85;20984;-75
2022/01/19 16:47:32;;;;;;;31.40;21.95;;;;;;;1.61;81.76;100712.78;3291941;84;21138;-75
2022/01/19 16:52:21;;;;;;;31.97;19.73;;;;;;;1.58;81.77;100694.70;3298122;85;20967;-73
2022/01/19 16:57:12;;;;;;;28.87;19.52;;;;;;;1.58;81.75;100704.95;3295924;85;22500;-74
2022/01/19 17:02:04;;;;;;;32.50;19.20;;;;;;;1.56;81.72;100694.99;3284919;84;21031;-74
2022/01/19 17:06:56;;;;;;;27.50;17.67;;;;;;;1.53;81.77;100676.51;3285470;85;21253;-75
2022/01/19 17:11:47;;;;;;;28.25;18.55;;;;;;;1.51;81.71;100681.55;3264787;84;21360;-74
2022/01/19 17:16:46;;;;;;;30.77;19.15;;;;;;;1.49;81.69;100672.91;3267061;84;21543;-73
2022/01/19 17:21:31;;;;;;;28.15;19.30;;;;;;;1.48;81.78;100659.59;3305805;84;20995;-79
2022/01/19 17:26:23;;;;;;;35.58;22.07;;;;;;;1.47;81.59;100654.02;3282731;84;20899;-73
2022/01/19 17:31:15;;;;;;;28.80;19.50;;;;;;;1.44;81.79;100638.47;3259253;84;21593;-73
2022/01/19 17:36:08;;;;;;;32.33;20.75;;;;;;;1.42;81.79;100626.39;3266760;86;21572;-73
2022/01/19 17:41:00;;;;;;;30.57;20.65;;;;;;;1.40;81.85;100628.87;3268086;85;21460;-73
2022/01/19 17:46:08;;;;;;;31.52;20.37;;;;;;;1.38;81.85;100621.89;3246903;84;22123;-74
2022/01/19 17:55:45;;;;;;;31.30;20.80;;;;;;;1.35;81.80;100602.13;3283776;85;20985;-74
2022/01/19 18:00:38;;;;;;;28.83;16.57;;;;;;;1.32;81.90;100595.55;3286537;85;21101;-73
2022/01/19 18:05:32;;;;;;;30.55;21.20;;;;;;;1.31;81.88;100591.25;3307072;85;20948;-73
2022/01/19 18:10:27;;;;;;;31.55;20.30;;;;;;;1.33;82.07;100590.92;3254820;85;20917;-73
2022/01/19 18:15:17;;;;;;;28.25;18.73;;;;;;;1.33;82.08;100580.67;3223139;85;20940;-73
2022/01/19 18:20:10;;;;;;;35.68;20.45;;;;;;;1.36;82.05;100565.85;3271659;86;21062;-73
2022/01/19 18:25:03;;;;;;;30.50;19.87;;;;;;;1.35;82.09;100552.17;3251613;85;21030;-73
2022/01/19 18:29:55;;;;;;;32.17;21.73;;;;;;;1.29;82.04;100548.03;3266380;86;21529;-73
2022/01/19 18:34:46;;;;;;;29.90;19.27;;;;;;;1.19;82.12;100522.73;3264689;85;22259;-73
2022/01/19 18:39:38;;;;;;;31.70;20.52;;;;;;;1.08;82.19;100498.73;3242542;85;20955;-73
2022/01/19 18:44:33;;;;;;;27.37;18.55;;;;;;;0.97;82.24;100488.34;3260012;85;21039;-73
2022/01/19 18:49:23;;;;;;;33.20;21.93;;;;;;;0.85;82.37;100472.34;3271219;85;20974;-74
2022/01/19 18:54:16;;;;;;;33.33;19.92;;;;;;;0.74;82.59;100450.03;3307768;85;20987;-72
2022/01/19 18:59:07;;;;;;;33.83;22.67;;;;;;;0.63;82.60;100429.00;3254283;85;21647;-73
2022/01/19 19:03:58;;;;;;;38.25;24.32;;;;;;;0.52;82.66;100421.14;3275643;86;21041;-73
2022/01/19 19:08:54;;;;;;;38.50;23.47;;;;;;;0.43;82.79;100419.38;3226211;87;21021;-74
2022/01/19 19:13:43;;;;;;;36.95;24.52;;;;;;;0.38;83.04;100407.23;3252579;86;21314;-73
2022/01/19 19:18:35;;;;;;;43.78;26.82;;;;;;;0.33;83.05;100395.02;3276450;87;20968;-73
2022/01/19 19:23:27;;;;;;;45.88;28.55;;;;;;;0.27;83.13;100378.05;3252306;86;21038;-73
2022/01/19 19:28:19;;;;;;;40.33;28.10;;;;;;;0.22;83.22;100365.03;3255515;87;21016;-73
2022/01/19 19:33:10;;;;;;;40.52;22.40;;;;;;;0.18;83.29;100352.90;3273276;87;21209;-73
2022/01/19 19:38:01;;;;;;;46.42;26.48;;;;;;;0.13;83.23;100344.11;3230186;87;21167;-74
2022/01/19 19:42:54;;;;;;;40.67;26.33;;;;;;;0.10;83.34;100332.43;3248455;86;20982;-72
2022/01/19 19:47:50;;;;;;;43.60;25.77;;;;;;;0.07;83.40;100314.36;3246248;87;20961;-73
2022/01/19 19:52:42;;;;;;;37.53;23.12;;;;;;;0.03;83.37;100308.62;3205029;87;20977;-73
2022/01/19 19:57:35;;;;;;;37.40;22.17;;;;;;;-0.02;83.39;100288.81;3220149;87;21605;-72
2022/01/19 20:02:26;;;;;;;41.98;24.75;;;;;;;-0.06;83.38;100281.77;3217289;87;20988;-72
2022/01/19 20:07:17;;;;;;;41.42;23.07;;;;;;;-0.09;83.44;100275.61;3222593;87;21077;-73
2022/01/19 20:12:10;;;;;;;39.40;24.20;;;;;;;-0.14;83.42;100268.09;3276499;86;20966;-73
2022/01/19 20:17:02;;;;;;;39.73;25.92;;;;;;;-0.18;83.46;100253.00;3205775;87;20928;-72
2022/01/19 20:21:54;;;;;;;46.75;27.22;;;;;;;-0.22;83.49;100246.86;3201823;87;20983;-73
2022/01/19 20:26:45;;;;;;;34.80;21.10;;;;;;;-0.26;83.50;100231.30;3219791;87;21481;-73
2022/01/19 20:31:40;;;;;;;41.88;26.48;;;;;;;-0.29;83.54;100219.64;3241861;87;20975;-73
2022/01/19 20:36:31;;;;;;;45.92;26.40;;;;;;;-0.35;83.55;100214.22;3248785;87;20963;-72
2022/01/19 20:41:23;;;;;;;47.23;28.10;;;;;;;-0.37;83.57;100209.44;3246811;86;20953;-72
2022/01/19 20:46:15;;;;;;;47.08;26.73;;;;;;;-0.40;83.64;100216.11;3215653;87;20972;-72
2022/01/19 20:51:06;;;;;;;42.27;23.50;;;;;;;-0.42;83.60;100204.06;3232725;86;21212;-73
2022/01/19 20:55:57;;;;;;;46.85;26.68;;;;;;;-0.43;83.60;100190.43;3221479;87;21468;-72
2022/01/19 21:00:51;;;;;;;45.00;24.82;;;;;;;-0.48;83.54;100166.32;3236716;85;21507;-72
2022/01/19 21:05:44;;;;;;;47.30;28.57;;;;;;;-0.50;83.54;100141.48;3284434;84;21023;-73
2022/01/19 21:10:36;;;;;;;41.90;24.95;;;;;;;-0.55;83.48;100136.16;3248837;84;20967;-74
2022/01/19 21:15:29;;;;;;;47.35;27.70;;;;;;;-0.63;83.47;100122.96;3270590;85;21048;-72
2022/01/19 21:20:21;;;;;;;34.13;17.50;;;;;;;-0.65;83.56;100110.92;3248488;85;21476;-75
2022/01/19 21:25:13;;;;;;;51.45;28.25;;;;;;;-0.65;83.65;100109.65;3241639;84;20980;-81
2022/01/19 21:30:07;;;;;;;47.03;27.93;;;;;;;-0.72;83.46;100099.52;3243964;85;21561;-78
2022/01/19 21:34:58;;;;;;;50.48;27.58;;;;;;;-0.74;83.48;100110.45;3271130;85;20991;-72
2022/01/19 21:39:50;;;;;;;50.30;28.38;;;;;;;-0.77;83.55;100106.05;3321016;84;21084;-73
2022/01/19 21:44:44;;;;;;;49.15;28.67;;;;;;;-0.83;83.42;100109.16;3265281;85;20965;-72
2022/01/19 21:49:35;;;;;;;48.17;26.85;;;;;;;-0.88;83.46;100108.03;3293606;85;21021;-73
2022/01/19 21:54:27;;;;;;;36.75;25.17;;;;;;;-0.94;83.47;100096.65;3248850;85;20959;-72
2022/01/19 21:59:18;;;;;;;47.98;27.30;;;;;;;-1.01;83.48;100085.23;3306335;85;21251;-73
2022/01/19 22:04:09;;;;;;;51.15;26.93;;;;;;;-1.07;83.41;100083.23;3300496;84;21135;-73
2022/01/19 22:09:10;;;;;;;42.25;25.10;;;;;;;-1.13;83.50;100079.47;3302656;85;22126;-72
2022/01/19 22:13:53;;;;;;;42.85;26.45;;;;;;;-1.19;83.52;100070.69;3295947;85;20936;-73
2022/01/19 22:18:44;;;;;;;47.75;28.20;;;;;;;-1.22;83.57;100075.61;3322446;85;21532;-72
2022/01/19 22:23:36;;;;;;;51.25;27.70;;;;;;;-1.28;83.54;100065.09;3301637;84;20970;-73
2022/01/19 22:28:28;;;;;;;52.93;28.95;;;;;;;-1.29;83.58;100058.63;3260137;85;21017;-72
2022/01/19 22:33:19;;;;;;;40.17;24.45;;;;;;;-1.32;83.60;100047.88;3264085;85;21164;-72
2022/01/19 22:38:10;;;;;;;47.73;24.80;;;;;;;-1.35;83.54;100038.38;3268111;85;20964;-72
2022/01/19 22:43:03;;;;;;;39.23;25.00;;;;;;;-1.38;83.46;100039.51;3275708;85;21000;-72
2022/01/19 22:47:54;;;;;;;33.05;20.82;;;;;;;-1.42;83.52;100032.88;3286548;85;21534;-72
2022/01/19 22:52:46;;;;;;;34.18;20.10;;;;;;;-1.41;83.47;100019.34;3288388;84;26827;-72
2022/01/19 22:57:37;;;;;;;32.83;18.55;;;;;;;-1.31;83.32;100006.27;3264342;84;21515;-71
2022/01/19 23:02:28;;;;;;;37.05;19.90;;;;;;;-1.12;83.40;99990.26;3232970;85;20998;-72
2022/01/19 23:07:20;;;;;;;32.03;19.27;;;;;;;-0.92;83.23;99992.97;3211157;86;21030;-73
2022/01/19 23:13:07;;;;;;;33.67;18.77;;;;;;;-0.73;83.00;99979.44;3204325;85;21480;-74
2022/01/19 23:17:58;;;;;;;30.88;18.52;;;;;;;-0.57;82.68;99961.56;3243206;85;21248;-74
2022/01/19 23:22:50;;;;;;;32.90;17.55;;;;;;;-0.40;82.49;99951.74;3240173;86;21230;-74
2022/01/19 23:27:43;;;;;;;26.07;13.90;;;;;;;-0.26;82.23;99947.72;3203594;84;21024;-73
2022/01/19 23:32:42;;;;;;;29.30;17.67;;;;;;;-0.14;82.06;99931.70;3243034;84;20983;-74
2022/01/19 23:48:03;;;;;;;25.92;15.35;;;;;;;0.06;81.53;99899.80;3246200;86;20952;-74
2022/01/19 23:52:53;;;;;;;32.78;16.80;;;;;;;0.11;81.27;99897.06;3211803;84;21480;-74
2022/01/19 23:57:53;;;;;;;26.60;16.17;;;;;;;0.13;81.22;99886.50;3210863;84;22265;-73
